sensor_id;sensor_type;location;lat;lon;timestamp;pressure;altitude;pressure_sealevel;temperature
66372;BMP180;53168;51.146;17.120;2023-07-09T00:01:00;100634.00;;;17.64
66372;BMP180;53168;51.146;17.120;2023-07-09T00:03:54;100632.80;;;17.68
66372;BMP180;53168;51.146;17.120;2023-07-09T00:06:29;100633.60;;;17.60
66372;BMP180;53168;51.146;17.120;2023-07-09T00:09:03;100634.80;;;17.50
66372;BMP180;53168;51.146;17.120;2023-07-09T00:11:38;100628.60;;;17.44
66372;BMP180;53168;51.146;17.120;2023-07-09T00:14:13;100633.20;;;17.40
66372;BMP180;53168;51.146;17.120;2023-07-09T00:16:48;100632.20;;;17.40
66372;BMP180;53168;51.146;17.120;2023-07-09T00:19:24;100628.00;;;17.40
66372;BMP180;53168;51.146;17.120;2023-07-09T00:22:01;100630.80;;;17.30
66372;BMP180;53168;51.146;17.120;2023-07-09T00:24:35;100633.40;;;17.30
66372;BMP180;53168;51.146;17.120;2023-07-09T00:27:11;100632.80;;;17.22
66372;BMP180;53168;51.146;17.120;2023-07-09T00:29:45;100634.40;;;17.20
66372;BMP180;53168;51.146;17.120;2023-07-09T00:32:21;100631.60;;;17.10
66372;BMP180;53168;51.146;17.120;2023-07-09T00:34:57;100629.40;;;17.10
66372;BMP180;53168;51.146;17.120;2023-07-09T00:37:38;100631.60;;;17.10
66372;BMP180;53168;51.146;17.120;2023-07-09T00:40:22;100634.20;;;17.12
66372;BMP180;53168;51.146;17.120;2023-07-09T00:43:01;100634.60;;;17.10
66372;BMP180;53168;51.146;17.120;2023-07-09T00:45:36;100632.20;;;17.10
66372;BMP180;53168;51.146;17.120;2023-07-09T00:48:17;100623.00;;;17.10
66372;BMP180;53168;51.146;17.120;2023-07-09T00:50:56;100624.60;;;17.10
66372;BMP180;53168;51.146;17.120;2023-07-09T00:53:35;100623.60;;;17.10
66372;BMP180;53168;51.146;17.120;2023-07-09T00:56:16;100623.80;;;17.00
66372;BMP180;53168;51.146;17.120;2023-07-09T00:58:54;100619.80;;;17.00
66372;BMP180;53168;51.146;17.120;2023-07-09T01:01:28;100615.60;;;16.98
66372;BMP180;53168;51.146;17.120;2023-07-09T01:04:05;100617.80;;;16.90
66372;BMP180;53168;51.146;17.120;2023-07-09T01:06:47;100616.60;;;16.90
66372;BMP180;53168;51.146;17.120;2023-07-09T01:09:24;100614.20;;;16.80
66372;BMP180;53168;51.146;17.120;2023-07-09T01:12:01;100621.00;;;16.80
66372;BMP180;53168;51.146;17.120;2023-07-09T01:14:37;100620.20;;;16.70
66372;BMP180;53168;51.146;17.120;2023-07-09T01:17:12;100620.40;;;16.70
66372;BMP180;53168;51.146;17.120;2023-07-09T01:19:52;100620.40;;;16.60
66372;BMP180;53168;51.146;17.120;2023-07-09T01:22:26;100615.60;;;16.50
66372;BMP180;53168;51.146;17.120;2023-07-09T01:25:06;100620.80;;;16.40
66372;BMP180;53168;51.146;17.120;2023-07-09T01:27:45;100614.40;;;16.30
66372;BMP180;53168;51.146;17.120;2023-07-09T01:30:24;100616.40;;;16.30
66372;BMP180;53168;51.146;17.120;2023-07-09T01:33:01;100624.40;;;16.20
66372;BMP180;53168;51.146;17.120;2023-07-09T01:35:40;100623.80;;;16.20
66372;BMP180;53168;51.146;17.120;2023-07-09T01:38:14;100625.60;;;16.10
66372;BMP180;53168;51.146;17.120;2023-07-09T01:40:48;100622.00;;;16.10
66372;BMP180;53168;51.146;17.120;2023-07-09T01:43:22;100619.00;;;16.08
66372;BMP180;53168;51.146;17.120;2023-07-09T01:45:59;100620.00;;;16.00
66372;BMP180;53168;51.146;17.120;2023-07-09T01:48:33;100617.00;;;16.02
66372;BMP180;53168;51.146;17.120;2023-07-09T01:51:18;100619.80;;;16.04
66372;BMP180;53168;51.146;17.120;2023-07-09T01:53:52;100614.80;;;16.00
66372;BMP180;53168;51.146;17.120;2023-07-09T01:56:28;100613.80;;;16.00
66372;BMP180;53168;51.146;17.120;2023-07-09T01:59:02;100609.40;;;16.00
66372;BMP180;53168;51.146;17.120;2023-07-09T02:01:36;100611.60;;;16.00
66372;BMP180;53168;51.146;17.120;2023-07-09T02:04:10;100615.60;;;15.96
66372;BMP180;53168;51.146;17.120;2023-07-09T02:06:46;100620.60;;;15.90
66372;BMP180;53168;51.146;17.120;2023-07-09T02:09:20;100624.00;;;15.92
66372;BMP180;53168;51.146;17.120;2023-07-09T02:11:55;100626.20;;;15.96
66372;BMP180;53168;51.146;17.120;2023-07-09T02:14:28;100626.60;;;15.90
66372;BMP180;53168;51.146;17.120;2023-07-09T02:17:02;100629.60;;;15.90
66372;BMP180;53168;51.146;17.120;2023-07-09T02:19:37;100632.40;;;15.90
66372;BMP180;53168;51.146;17.120;2023-07-09T02:22:12;100627.80;;;15.94
66372;BMP180;53168;51.146;17.120;2023-07-09T02:24:46;100627.20;;;16.00
66372;BMP180;53168;51.146;17.120;2023-07-09T02:27:21;100624.00;;;16.10
66372;BMP180;53168;51.146;17.120;2023-07-09T02:29:54;100625.40;;;16.00
66372;BMP180;53168;51.146;17.120;2023-07-09T02:32:32;100624.60;;;16.00
66372;BMP180;53168;51.146;17.120;2023-07-09T02:35:07;100625.40;;;15.98
66372;BMP180;53168;51.146;17.120;2023-07-09T02:37:41;100637.80;;;15.90
66372;BMP180;53168;51.146;17.120;2023-07-09T02:40:16;100640.40;;;15.90
66372;BMP180;53168;51.146;17.120;2023-07-09T02:42:50;100640.00;;;15.90
66372;BMP180;53168;51.146;17.120;2023-07-09T02:45:24;100642.00;;;15.90
66372;BMP180;53168;51.146;17.120;2023-07-09T02:47:58;100642.60;;;15.90
66372;BMP180;53168;51.146;17.120;2023-07-09T02:50:36;100637.40;;;15.90
66372;BMP180;53168;51.146;17.120;2023-07-09T02:53:10;100629.20;;;15.88
66372;BMP180;53168;51.146;17.120;2023-07-09T02:55:44;100629.40;;;15.90
66372;BMP180;53168;51.146;17.120;2023-07-09T02:58:18;100626.20;;;15.90
66372;BMP180;53168;51.146;17.120;2023-07-09T03:00:55;100624.60;;;15.90
66372;BMP180;53168;51.146;17.120;2023-07-09T03:03:29;100625.80;;;15.90
66372;BMP180;53168;51.146;17.120;2023-07-09T03:06:04;100624.40;;;15.98
66372;BMP180;53168;51.146;17.120;2023-07-09T03:08:38;100631.20;;;16.00
66372;BMP180;53168;51.146;17.120;2023-07-09T03:11:17;100650.40;;;16.10
66372;BMP180;53168;51.146;17.120;2023-07-09T03:13:51;100638.20;;;16.20
66372;BMP180;53168;51.146;17.120;2023-07-09T03:16:25;100634.00;;;16.30
66372;BMP180;53168;51.146;17.120;2023-07-09T03:18:59;100633.80;;;16.26
66372;BMP180;53168;51.146;17.120;2023-07-09T03:21:34;100647.20;;;16.30
66372;BMP180;53168;51.146;17.120;2023-07-09T03:24:10;100648.00;;;16.30
66372;BMP180;53168;51.146;17.120;2023-07-09T03:27:00;100636.00;;;16.40
66372;BMP180;53168;51.146;17.120;2023-07-09T03:29:34;100644.20;;;16.50
66372;BMP180;53168;51.146;17.120;2023-07-09T03:32:16;100635.00;;;16.60
66372;BMP180;53168;51.146;17.120;2023-07-09T03:34:50;100629.80;;;16.70
66372;BMP180;53168;51.146;17.120;2023-07-09T03:37:29;100626.40;;;16.80
66372;BMP180;53168;51.146;17.120;2023-07-09T03:40:04;100628.60;;;16.80
66372;BMP180;53168;51.146;17.120;2023-07-09T03:42:38;100651.40;;;16.90
66372;BMP180;53168;51.146;17.120;2023-07-09T03:45:12;100648.60;;;16.80
66372;BMP180;53168;51.146;17.120;2023-07-09T03:47:46;100635.00;;;16.80
66372;BMP180;53168;51.146;17.120;2023-07-09T03:50:21;100628.00;;;16.74
66372;BMP180;53168;51.146;17.120;2023-07-09T03:52:55;100628.00;;;16.70
66372;BMP180;53168;51.146;17.120;2023-07-09T03:55:29;100640.40;;;16.76
66372;BMP180;53168;51.146;17.120;2023-07-09T03:58:04;100646.80;;;16.80
66372;BMP180;53168;51.146;17.120;2023-07-09T04:00:40;100638.00;;;16.86
66372;BMP180;53168;51.146;17.120;2023-07-09T04:03:34;100634.20;;;17.00
66372;BMP180;53168;51.146;17.120;2023-07-09T04:06:09;100623.20;;;17.10
66372;BMP180;53168;51.146;17.120;2023-07-09T04:08:43;100655.60;;;17.20
66372;BMP180;53168;51.146;17.120;2023-07-09T04:11:19;100651.60;;;17.30
66372;BMP180;53168;51.146;17.120;2023-07-09T04:14:19;100651.60;;;17.34
66372;BMP180;53168;51.146;17.120;2023-07-09T04:16:56;100654.40;;;17.40
66372;BMP180;53168;51.146;17.120;2023-07-09T04:19:46;100636.20;;;17.50
66372;BMP180;53168;51.146;17.120;2023-07-09T04:22:41;100648.60;;;17.60
66372;BMP180;53168;51.146;17.120;2023-07-09T04:25:16;100654.80;;;17.72
66372;BMP180;53168;51.146;17.120;2023-07-09T04:27:54;100649.20;;;17.90
66372;BMP180;53168;51.146;17.120;2023-07-09T04:30:28;100653.60;;;17.94
66372;BMP180;53168;51.146;17.120;2023-07-09T04:33:02;100655.20;;;18.00
66372;BMP180;53168;51.146;17.120;2023-07-09T04:35:36;100651.60;;;18.00
66372;BMP180;53168;51.146;17.120;2023-07-09T04:38:10;100663.20;;;18.10
66372;BMP180;53168;51.146;17.120;2023-07-09T04:40:44;100667.60;;;18.20
66372;BMP180;53168;51.146;17.120;2023-07-09T04:43:18;100666.40;;;18.20
66372;BMP180;53168;51.146;17.120;2023-07-09T04:45:54;100667.60;;;18.30
66372;BMP180;53168;51.146;17.120;2023-07-09T04:48:28;100677.00;;;18.30
66372;BMP180;53168;51.146;17.120;2023-07-09T04:51:02;100670.00;;;18.40
66372;BMP180;53168;51.146;17.120;2023-07-09T04:53:36;100676.00;;;18.44
66372;BMP180;53168;51.146;17.120;2023-07-09T04:56:10;100680.60;;;18.50
66372;BMP180;53168;51.146;17.120;2023-07-09T04:58:44;100678.80;;;18.60
66372;BMP180;53168;51.146;17.120;2023-07-09T05:01:18;100671.00;;;18.60
66372;BMP180;53168;51.146;17.120;2023-07-09T05:03:51;100672.60;;;18.68
66372;BMP180;53168;51.146;17.120;2023-07-09T05:06:28;100671.80;;;18.80
66372;BMP180;53168;51.146;17.120;2023-07-09T05:09:04;100678.00;;;18.88
66372;BMP180;53168;51.146;17.120;2023-07-09T05:11:39;100671.00;;;19.00
66372;BMP180;53168;51.146;17.120;2023-07-09T05:14:13;100670.80;;;19.10
66372;BMP180;53168;51.146;17.120;2023-07-09T05:16:48;100671.60;;;19.20
66372;BMP180;53168;51.146;17.120;2023-07-09T05:19:22;100672.20;;;19.30
66372;BMP180;53168;51.146;17.120;2023-07-09T05:21:57;100679.00;;;19.40
66372;BMP180;53168;51.146;17.120;2023-07-09T05:24:35;100675.20;;;19.50
66372;BMP180;53168;51.146;17.120;2023-07-09T05:27:09;100677.80;;;19.60
66372;BMP180;53168;51.146;17.120;2023-07-09T05:29:44;100683.80;;;19.70
66372;BMP180;53168;51.146;17.120;2023-07-09T05:32:18;100676.40;;;19.74
66372;BMP180;53168;51.146;17.120;2023-07-09T05:34:52;100681.00;;;19.80
66372;BMP180;53168;51.146;17.120;2023-07-09T05:37:26;100680.20;;;19.90
66372;BMP180;53168;51.146;17.120;2023-07-09T05:40:01;100687.20;;;20.00
66372;BMP180;53168;51.146;17.120;2023-07-09T05:42:38;100683.20;;;20.10
66372;BMP180;53168;51.146;17.120;2023-07-09T05:45:14;100685.20;;;20.30
66372;BMP180;53168;51.146;17.120;2023-07-09T05:47:50;100691.40;;;20.44
66372;BMP180;53168;51.146;17.120;2023-07-09T05:50:24;100693.20;;;20.60
66372;BMP180;53168;51.146;17.120;2023-07-09T05:52:57;100691.40;;;20.80
66372;BMP180;53168;51.146;17.120;2023-07-09T05:55:31;100682.40;;;21.00
66372;BMP180;53168;51.146;17.120;2023-07-09T05:58:16;100678.40;;;21.10
66372;BMP180;53168;51.146;17.120;2023-07-09T06:00:52;100676.00;;;21.30
66372;BMP180;53168;51.146;17.120;2023-07-09T06:03:30;100673.20;;;21.40
66372;BMP180;53168;51.146;17.120;2023-07-09T06:06:06;100677.60;;;21.60
66372;BMP180;53168;51.146;17.120;2023-07-09T06:08:40;100685.40;;;21.70
66372;BMP180;53168;51.146;17.120;2023-07-09T06:11:14;100692.20;;;21.70
66372;BMP180;53168;51.146;17.120;2023-07-09T06:13:50;100681.20;;;21.80
66372;BMP180;53168;51.146;17.120;2023-07-09T06:16:24;100684.60;;;21.90
66372;BMP180;53168;51.146;17.120;2023-07-09T06:18:58;100685.80;;;21.90
66372;BMP180;53168;51.146;17.120;2023-07-09T06:21:31;100681.40;;;22.00
66372;BMP180;53168;51.146;17.120;2023-07-09T06:24:07;100684.80;;;22.10
66372;BMP180;53168;51.146;17.120;2023-07-09T06:26:44;100690.80;;;22.20
66372;BMP180;53168;51.146;17.120;2023-07-09T06:29:19;100688.00;;;22.30
66372;BMP180;53168;51.146;17.120;2023-07-09T06:31:53;100681.20;;;22.40
66372;BMP180;53168;51.146;17.120;2023-07-09T06:34:27;100681.60;;;22.50
66372;BMP180;53168;51.146;17.120;2023-07-09T06:37:01;100685.00;;;22.60
66372;BMP180;53168;51.146;17.120;2023-07-09T06:39:37;100689.80;;;22.74
66372;BMP180;53168;51.146;17.120;2023-07-09T06:42:11;100684.80;;;22.82
66372;BMP180;53168;51.146;17.120;2023-07-09T06:45:07;100683.20;;;22.96
66372;BMP180;53168;51.146;17.120;2023-07-09T06:47:40;100683.60;;;23.08
66372;BMP180;53168;51.146;17.120;2023-07-09T06:50:15;100686.60;;;23.20
66372;BMP180;53168;51.146;17.120;2023-07-09T06:52:49;100688.60;;;23.40
66372;BMP180;53168;51.146;17.120;2023-07-09T06:55:24;100686.60;;;23.50
66372;BMP180;53168;51.146;17.120;2023-07-09T06:57:58;100682.00;;;23.60
66372;BMP180;53168;51.146;17.120;2023-07-09T07:00:37;100682.00;;;23.74
66372;BMP180;53168;51.146;17.120;2023-07-09T07:03:14;100687.60;;;23.90
66372;BMP180;53168;51.146;17.120;2023-07-09T07:05:51;100681.40;;;24.10
66372;BMP180;53168;51.146;17.120;2023-07-09T07:08:27;100685.40;;;24.30
66372;BMP180;53168;51.146;17.120;2023-07-09T07:11:04;100693.40;;;24.48
66372;BMP180;53168;51.146;17.120;2023-07-09T07:13:41;100683.20;;;24.60
66372;BMP180;53168;51.146;17.120;2023-07-09T07:16:15;100689.00;;;24.72
66372;BMP180;53168;51.146;17.120;2023-07-09T07:18:49;100685.20;;;24.90
66372;BMP180;53168;51.146;17.120;2023-07-09T07:21:27;100685.60;;;25.00
66372;BMP180;53168;51.146;17.120;2023-07-09T07:24:02;100689.60;;;25.10
66372;BMP180;53168;51.146;17.120;2023-07-09T07:26:36;100685.40;;;25.20
66372;BMP180;53168;51.146;17.120;2023-07-09T07:29:10;100684.80;;;25.32
66372;BMP180;53168;51.146;17.120;2023-07-09T07:31:44;100691.20;;;25.46
66372;BMP180;53168;51.146;17.120;2023-07-09T07:34:21;100678.80;;;25.50
66372;BMP180;53168;51.146;17.120;2023-07-09T07:36:55;100686.80;;;25.50
66372;BMP180;53168;51.146;17.120;2023-07-09T07:39:30;100677.40;;;25.52
66372;BMP180;53168;51.146;17.120;2023-07-09T07:42:06;100679.60;;;25.60
66372;BMP180;53168;51.146;17.120;2023-07-09T07:44:40;100682.00;;;25.70
66372;BMP180;53168;51.146;17.120;2023-07-09T07:47:30;100677.40;;;25.74
66372;BMP180;53168;51.146;17.120;2023-07-09T07:50:09;100677.00;;;25.90
66372;BMP180;53168;51.146;17.120;2023-07-09T07:52:43;100672.60;;;26.00
66372;BMP180;53168;51.146;17.120;2023-07-09T07:55:18;100676.20;;;26.20
66372;BMP180;53168;51.146;17.120;2023-07-09T07:57:53;100680.20;;;26.30
66372;BMP180;53168;51.146;17.120;2023-07-09T08:00:35;100688.40;;;26.46
66372;BMP180;53168;51.146;17.120;2023-07-09T08:03:12;100690.20;;;26.60
66372;BMP180;53168;51.146;17.120;2023-07-09T08:05:56;100699.40;;;26.70
66372;BMP180;53168;51.146;17.120;2023-07-09T08:08:37;100694.20;;;26.90
66372;BMP180;53168;51.146;17.120;2023-07-09T08:11:15;100697.20;;;27.00
66372;BMP180;53168;51.146;17.120;2023-07-09T08:14:02;100694.00;;;27.20
66372;BMP180;53168;51.146;17.120;2023-07-09T08:16:40;100698.40;;;27.30
66372;BMP180;53168;51.146;17.120;2023-07-09T08:19:17;100705.20;;;27.40
66372;BMP180;53168;51.146;17.120;2023-07-09T08:21:51;100706.60;;;27.50
66372;BMP180;53168;51.146;17.120;2023-07-09T08:24:27;100704.60;;;27.60
66372;BMP180;53168;51.146;17.120;2023-07-09T08:27:01;100705.60;;;27.70
66372;BMP180;53168;51.146;17.120;2023-07-09T08:33:02;100701.80;;;28.00
66372;BMP180;53168;51.146;17.120;2023-07-09T08:35:36;100696.40;;;28.10
66372;BMP180;53168;51.146;17.120;2023-07-09T08:38:12;100695.00;;;28.10
66372;BMP180;53168;51.146;17.120;2023-07-09T08:40:57;100692.20;;;28.20
66372;BMP180;53168;51.146;17.120;2023-07-09T08:43:54;100691.00;;;28.30
66372;BMP180;53168;51.146;17.120;2023-07-09T08:46:46;100697.80;;;28.50
66372;BMP180;53168;51.146;17.120;2023-07-09T08:49:35;100698.00;;;28.60
66372;BMP180;53168;51.146;17.120;2023-07-09T08:52:24;100694.40;;;28.80
66372;BMP180;53168;51.146;17.120;2023-07-09T08:55:06;100691.20;;;28.90
66372;BMP180;53168;51.146;17.120;2023-07-09T08:57:47;100692.00;;;29.00
66372;BMP180;53168;51.146;17.120;2023-07-09T09:00:33;100697.20;;;29.00
66372;BMP180;53168;51.146;17.120;2023-07-09T09:03:29;100697.20;;;29.10
66372;BMP180;53168;51.146;17.120;2023-07-09T09:06:11;100693.40;;;29.20
66372;BMP180;53168;51.146;17.120;2023-07-09T09:09:05;100692.40;;;29.38
66372;BMP180;53168;51.146;17.120;2023-07-09T09:11:55;100690.60;;;29.40
66372;BMP180;53168;51.146;17.120;2023-07-09T09:14:36;100687.60;;;29.50
66372;BMP180;53168;51.146;17.120;2023-07-09T09:17:18;100685.40;;;29.50
66372;BMP180;53168;51.146;17.120;2023-07-09T09:20:01;100688.80;;;29.70
66372;BMP180;53168;51.146;17.120;2023-07-09T09:22:54;100686.40;;;29.84
66372;BMP180;53168;51.146;17.120;2023-07-09T09:25:44;100692.60;;;30.00
66372;BMP180;53168;51.146;17.120;2023-07-09T09:28:38;100688.40;;;30.14
66372;BMP180;53168;51.146;17.120;2023-07-09T09:34:30;100694.80;;;30.30
66372;BMP180;53168;51.146;17.120;2023-07-09T09:37:11;100698.60;;;30.40
66372;BMP180;53168;51.146;17.120;2023-07-09T09:39:50;100698.00;;;30.52
66372;BMP180;53168;51.146;17.120;2023-07-09T09:42:50;100700.40;;;30.62
66372;BMP180;53168;51.146;17.120;2023-07-09T09:45:39;100699.00;;;30.70
66372;BMP180;53168;51.146;17.120;2023-07-09T09:48:19;100695.40;;;30.70
66372;BMP180;53168;51.146;17.120;2023-07-09T09:50:54;100699.20;;;30.82
66372;BMP180;53168;51.146;17.120;2023-07-09T09:53:37;100704.20;;;30.90
66372;BMP180;53168;51.146;17.120;2023-07-09T09:56:25;100703.00;;;31.00
66372;BMP180;53168;51.146;17.120;2023-07-09T09:59:01;100704.60;;;31.10
66372;BMP180;53168;51.146;17.120;2023-07-09T10:01:37;100701.80;;;31.00
66372;BMP180;53168;51.146;17.120;2023-07-09T10:04:20;100699.20;;;31.10
66372;BMP180;53168;51.146;17.120;2023-07-09T10:07:03;100701.60;;;31.30
66372;BMP180;53168;51.146;17.120;2023-07-09T10:09:52;100701.00;;;31.22
66372;BMP180;53168;51.146;17.120;2023-07-09T10:12:42;100707.00;;;31.30
66372;BMP180;53168;51.146;17.120;2023-07-09T10:15:41;100708.40;;;31.40
66372;BMP180;53168;51.146;17.120;2023-07-09T10:18:36;100707.40;;;31.30
66372;BMP180;53168;51.146;17.120;2023-07-09T10:21:22;100713.20;;;31.20
66372;BMP180;53168;51.146;17.120;2023-07-09T10:24:12;100708.40;;;31.20
66372;BMP180;53168;51.146;17.120;2023-07-09T10:27:03;100704.40;;;31.30
66372;BMP180;53168;51.146;17.120;2023-07-09T10:30:22;100709.40;;;31.50
66372;BMP180;53168;51.146;17.120;2023-07-09T10:33:16;100712.60;;;31.80
66372;BMP180;53168;51.146;17.120;2023-07-09T10:36:17;100707.60;;;31.90
66372;BMP180;53168;51.146;17.120;2023-07-09T10:39:02;100705.80;;;32.00
66372;BMP180;53168;51.146;17.120;2023-07-09T10:41:42;100709.00;;;31.80
66372;BMP180;53168;51.146;17.120;2023-07-09T10:47:30;100708.80;;;31.80
66372;BMP180;53168;51.146;17.120;2023-07-09T10:50:29;100707.80;;;31.80
66372;BMP180;53168;51.146;17.120;2023-07-09T10:53:14;100701.20;;;31.90
66372;BMP180;53168;51.146;17.120;2023-07-09T10:55:59;100700.20;;;32.10
66372;BMP180;53168;51.146;17.120;2023-07-09T10:58:53;100697.20;;;32.40
66372;BMP180;53168;51.146;17.120;2023-07-09T11:01:37;100699.00;;;32.60
66372;BMP180;53168;51.146;17.120;2023-07-09T11:04:26;100705.00;;;32.80
66372;BMP180;53168;51.146;17.120;2023-07-09T11:07:11;100702.80;;;32.80
66372;BMP180;53168;51.146;17.120;2023-07-09T11:09:50;100703.00;;;32.62
66372;BMP180;53168;51.146;17.120;2023-07-09T11:12:36;100698.00;;;32.60
66372;BMP180;53168;51.146;17.120;2023-07-09T11:15:21;100701.00;;;32.70
66372;BMP180;53168;51.146;17.120;2023-07-09T11:18:01;100696.40;;;32.60
66372;BMP180;53168;51.146;17.120;2023-07-09T11:20:45;100693.80;;;32.70
66372;BMP180;53168;51.146;17.120;2023-07-09T11:23:24;100692.80;;;32.80
66372;BMP180;53168;51.146;17.120;2023-07-09T11:26:13;100688.80;;;32.80
66372;BMP180;53168;51.146;17.120;2023-07-09T11:28:53;100638.60;;;33.72
66372;BMP180;53168;51.146;17.120;2023-07-09T11:31:37;100623.60;;;36.12
66372;BMP180;53168;51.146;17.120;2023-07-09T11:34:29;100620.80;;;36.86
66372;BMP180;53168;51.146;17.120;2023-07-09T11:37:13;100617.00;;;37.34
66372;BMP180;53168;51.146;17.120;2023-07-09T11:40:05;100611.40;;;37.60
66372;BMP180;53168;51.146;17.120;2023-07-09T11:42:59;100607.80;;;38.02
66372;BMP180;53168;51.146;17.120;2023-07-09T11:45:41;100611.80;;;38.50
66372;BMP180;53168;51.146;17.120;2023-07-09T11:48:29;100608.80;;;38.70
66372;BMP180;53168;51.146;17.120;2023-07-09T11:51:23;100584.60;;;39.18
66372;BMP180;53168;51.146;17.120;2023-07-09T11:54:00;100580.60;;;39.50
66372;BMP180;53168;51.146;17.120;2023-07-09T11:56:40;100571.20;;;39.40
66372;BMP180;53168;51.146;17.120;2023-07-09T11:59:15;100565.40;;;39.50
66372;BMP180;53168;51.146;17.120;2023-07-09T12:01:52;100552.40;;;39.50
66372;BMP180;53168;51.146;17.120;2023-07-09T12:04:36;100555.20;;;39.40
66372;BMP180;53168;51.146;17.120;2023-07-09T12:07:24;100559.20;;;39.50
66372;BMP180;53168;51.146;17.120;2023-07-09T12:09:59;100571.60;;;39.40
66372;BMP180;53168;51.146;17.120;2023-07-09T12:12:46;100595.80;;;39.80
66372;BMP180;53168;51.146;17.120;2023-07-09T12:15:28;100602.20;;;39.68
66372;BMP180;53168;51.146;17.120;2023-07-09T12:18:14;100614.60;;;39.22
66372;BMP180;53168;51.146;17.120;2023-07-09T12:20:55;100622.60;;;39.38
66372;BMP180;53168;51.146;17.120;2023-07-09T12:23:34;100629.00;;;39.60
66372;BMP180;53168;51.146;17.120;2023-07-09T12:26:15;100629.00;;;39.50
66372;BMP180;53168;51.146;17.120;2023-07-09T12:28:54;100635.40;;;39.50
66372;BMP180;53168;51.146;17.120;2023-07-09T12:31:31;100637.80;;;39.60
66372;BMP180;53168;51.146;17.120;2023-07-09T12:34:10;100643.20;;;39.60
66372;BMP180;53168;51.146;17.120;2023-07-09T12:36:53;100644.20;;;39.42
66372;BMP180;53168;51.146;17.120;2023-07-09T12:39:38;100640.60;;;39.70
66372;BMP180;53168;51.146;17.120;2023-07-09T12:42:53;100630.40;;;40.10
66372;BMP180;53168;51.146;17.120;2023-07-09T12:45:54;100640.20;;;40.50
66372;BMP180;53168;51.146;17.120;2023-07-09T12:52:31;100628.40;;;40.20
66372;BMP180;53168;51.146;17.120;2023-07-09T12:55:20;100626.80;;;40.10
66372;BMP180;53168;51.146;17.120;2023-07-09T13:13:06;100625.20;;;41.10
66372;BMP180;53168;51.146;17.120;2023-07-09T13:15:51;100621.60;;;40.90
66372;BMP180;53168;51.146;17.120;2023-07-09T13:18:32;100622.20;;;40.70
66372;BMP180;53168;51.146;17.120;2023-07-09T13:21:35;100626.80;;;40.50
66372;BMP180;53168;51.146;17.120;2023-07-09T13:24:19;100622.20;;;40.60
66372;BMP180;53168;51.146;17.120;2023-07-09T13:27:00;100615.60;;;40.72
66372;BMP180;53168;51.146;17.120;2023-07-09T13:29:38;100619.40;;;40.68
66372;BMP180;53168;51.146;17.120;2023-07-09T13:32:14;100615.80;;;40.48
66372;BMP180;53168;51.146;17.120;2023-07-09T13:34:49;100622.20;;;40.60
66372;BMP180;53168;51.146;17.120;2023-07-09T13:37:25;100618.80;;;40.60
66372;BMP180;53168;51.146;17.120;2023-07-09T13:40:00;100609.60;;;40.70
66372;BMP180;53168;51.146;17.120;2023-07-09T13:42:35;100602.00;;;40.96
66372;BMP180;53168;51.146;17.120;2023-07-09T13:45:28;100610.40;;;41.50
66372;BMP180;53168;51.146;17.120;2023-07-09T13:48:04;100605.60;;;41.50
66372;BMP180;53168;51.146;17.120;2023-07-09T13:50:51;100606.20;;;41.50
66372;BMP180;53168;51.146;17.120;2023-07-09T13:53:35;100609.40;;;41.68
66372;BMP180;53168;51.146;17.120;2023-07-09T13:56:11;100607.60;;;41.70
66372;BMP180;53168;51.146;17.120;2023-07-09T13:58:51;100609.60;;;41.60
66372;BMP180;53168;51.146;17.120;2023-07-09T14:01:27;100609.60;;;41.40
66372;BMP180;53168;51.146;17.120;2023-07-09T14:04:09;100601.40;;;41.70
66372;BMP180;53168;51.146;17.120;2023-07-09T14:06:46;100594.80;;;42.12
66372;BMP180;53168;51.146;17.120;2023-07-09T14:09:24;100596.80;;;42.80
66372;BMP180;53168;51.146;17.120;2023-07-09T14:12:04;100601.60;;;43.00
66372;BMP180;53168;51.146;17.120;2023-07-09T14:15:05;100599.20;;;42.90
66372;BMP180;53168;51.146;17.120;2023-07-09T14:17:46;100592.40;;;42.70
66372;BMP180;53168;51.146;17.120;2023-07-09T14:20:21;100595.60;;;42.64
66372;BMP180;53168;51.146;17.120;2023-07-09T14:22:58;100594.40;;;42.60
66372;BMP180;53168;51.146;17.120;2023-07-09T14:25:41;100593.60;;;42.18
66372;BMP180;53168;51.146;17.120;2023-07-09T14:28:29;100594.60;;;42.10
66372;BMP180;53168;51.146;17.120;2023-07-09T14:31:24;100595.20;;;42.40
66372;BMP180;53168;51.146;17.120;2023-07-09T14:34:22;100587.20;;;42.70
66372;BMP180;53168;51.146;17.120;2023-07-09T14:37:06;100586.40;;;43.00
66372;BMP180;53168;51.146;17.120;2023-07-09T14:39:53;100590.20;;;42.90
66372;BMP180;53168;51.146;17.120;2023-07-09T14:42:37;100580.00;;;42.80
66372;BMP180;53168;51.146;17.120;2023-07-09T14:45:37;100579.60;;;43.02
66372;BMP180;53168;51.146;17.120;2023-07-09T14:48:31;100584.00;;;43.10
66372;BMP180;53168;51.146;17.120;2023-07-09T14:51:33;100586.40;;;43.10
66372;BMP180;53168;51.146;17.120;2023-07-09T14:54:21;100585.00;;;43.08
66372;BMP180;53168;51.146;17.120;2023-07-09T14:57:00;100586.40;;;43.10
66372;BMP180;53168;51.146;17.120;2023-07-09T14:59:36;100580.40;;;43.16
66372;BMP180;53168;51.146;17.120;2023-07-09T15:02:45;100577.80;;;43.30
66372;BMP180;53168;51.146;17.120;2023-07-09T15:05:42;100585.00;;;43.30
66372;BMP180;53168;51.146;17.120;2023-07-09T15:13:23;100580.40;;;43.00
66372;BMP180;53168;51.146;17.120;2023-07-09T15:16:36;100568.80;;;43.00
66372;BMP180;53168;51.146;17.120;2023-07-09T15:19:17;100568.20;;;43.10
66372;BMP180;53168;51.146;17.120;2023-07-09T15:22:32;100573.80;;;43.30
66372;BMP180;53168;51.146;17.120;2023-07-09T15:25:23;100562.60;;;43.20
66372;BMP180;53168;51.146;17.120;2023-07-09T15:28:20;100560.40;;;42.80
66372;BMP180;53168;51.146;17.120;2023-07-09T15:30:54;100560.80;;;42.70